This is the latest recevied weather packets stored in our database for station/object DK0GS-10. If no packets are shown the sender has not sent any weather packets the latest 10 day(s).
| Time | Temp. | Humidity | Pressure | Rain* | Wind** | Luminosity | Snow |
|---|---|---|---|---|---|---|---|
| 1777429522 | 3.33° C | 71% | 1025.1 hPa | 0 mm | - | - | - |
| 1777428322 | 4.44° C | 69% | 1025.2 hPa | 0 mm | - | - | - |
| 1777427121 | 5° C | 69% | 1025.3 hPa | 0 mm | - | - | - |
| 1777425321 | 3.89° C | 73% | 1025.2 hPa | 0 mm | - | - | - |
| 1777424721 | 3.89° C | 73% | 1025.3 hPa | 0 mm | - | - | - |
| 1777422921 | 3.89° C | 74% | 1025.2 hPa | 0 mm | - | - | - |
| 1777416921 | 3.89° C | 71% | 1024.8 hPa | 0 mm | - | - | - |
| 1777416321 | 4.44° C | 70% | 1024.7 hPa | 0 mm | - | - | - |
| 1777413323 | 6.11° C | 62% | 1024.5 hPa | 0 mm | - | - | - |
| 1777409123 | 8.33° C | 54% | 1024.1 hPa | 0 mm | - | - | - |
| 1777408562 | 8.89° C | 52% | 1024 hPa | 0 mm | - | - | - |
| 1777405562 | 8.89° C | 51% | 1023.7 hPa | 0 mm | - | - | - |
| 1777404323 | 10° C | 48% | 1023.5 hPa | 0 mm | - | - | - |
| 1777403723 | 10.56° C | 46% | 1023.4 hPa | 0 mm | - | - | - |
| 1777398922 | 12.78° C | 38% | 1022.9 hPa | 0 mm | - | - | - |
| 1777395921 | 13.89° C | 36% | 1022.5 hPa | 0 mm | - | - | - |
| 1777392922 | 14.44° C | 35% | 1022.5 hPa | 0 mm | - | - | - |
| 1777392321 | 14.44° C | 33% | 1022.5 hPa | 0 mm | - | - | - |
| 1777391161 | 14.44° C | 34% | 1022.5 hPa | 0 mm | - | - | - |
| 1777387521 | 14.44° C | 35% | 1022.6 hPa | 0 mm | - | - | - |
| 1777386921 | 15° C | 34% | 1022.8 hPa | 0 mm | - | - | - |
| 1777380946 | 14.44° C | 40% | 1023.2 hPa | 0 mm | - | - | - |
| 1777379735 | 13.89° C | 43% | 1023.2 hPa | 0 mm | - | - | - |
| 1777377935 | 13.89° C | 44% | 1023.1 hPa | 0 mm | - | - | - |
| 1777376721 | 13.33° C | 45% | 1023.3 hPa | 0 mm | - | - | - |
* Rain latest hour (hover to see other rain measurements)
** Current wind speed in m/s (hover to see current wind gust speed)